Time;durP1;ratioP1;P1;durP2;ratioP2;P2;SDS_P1;SDS_P2;PMS_P1;PMS_P2;Temp;Humidity;BMP_temperature;BMP_pressure;BME280_temperature;BME280_humidity;BME280_pressure;Samples;Min_cycle;Max_cycle;Signal;HPM_P1;HPM_P2
2022/01/11 00:01:54;;;;;;;23.50;15.73;;;;;;;-3.37;67.22;96681.59;4960439;28;20142;-58
2022/01/11 00:04:21;;;;;;;27.05;15.88;;;;;;;-3.38;67.21;96677.31;4959205;28;20083;-58
2022/01/11 00:06:49;;;;;;;23.50;14.80;;;;;;;-3.39;66.75;96683.44;4960272;28;20108;-58
2022/01/11 00:09:30;;;;;;;24.40;15.45;;;;;;;-3.38;67.16;96677.31;4960177;28;20084;-58
2022/01/11 00:11:55;;;;;;;21.63;14.52;;;;;;;-3.40;67.07;96685.19;4947842;28;20177;-58
2022/01/11 00:14:21;;;;;;;24.17;14.30;;;;;;;-3.37;66.68;96692.00;4958838;28;20083;-58
2022/01/11 00:16:46;;;;;;;22.05;14.20;;;;;;;-3.34;66.86;96691.88;4958537;28;20076;-58
2022/01/11 00:19:13;;;;;;;23.88;14.50;;;;;;;-3.34;66.85;96691.88;4960177;28;20336;-58
2022/01/11 00:21:45;;;;;;;23.70;14.68;;;;;;;-3.36;66.25;96698.06;4960246;28;20073;-58
2022/01/11 00:27:07;;;;;;;22.95;14.77;;;;;;;-3.39;66.86;96696.44;4960353;28;20147;-58
2022/01/11 00:29:34;;;;;;;19.60;13.05;;;;;;;-3.37;66.88;96691.19;4959355;28;20128;-58
2022/01/11 00:32:02;;;;;;;20.08;13.50;;;;;;;-3.39;66.93;96696.44;4959361;28;20045;-58
2022/01/11 00:34:36;;;;;;;21.23;14.27;;;;;;;-3.37;67.32;96699.00;4958663;28;20427;-58
2022/01/11 00:37:02;;;;;;;21.80;13.82;;;;;;;-3.38;66.60;96690.31;4959765;28;20055;-58
2022/01/11 00:39:27;;;;;;;21.92;12.68;;;;;;;-3.38;67.09;96698.13;4969486;28;20072;-58
2022/01/11 00:41:53;;;;;;;18.58;11.98;;;;;;;-3.40;66.58;96702.53;4962394;28;20512;-58
2022/01/11 00:44:18;;;;;;;19.60;12.20;;;;;;;-3.44;66.74;96690.56;4958495;28;20042;-58
2022/01/11 00:46:44;;;;;;;17.48;12.32;;;;;;;-3.45;67.12;96699.28;4957521;28;20035;-58
2022/01/11 00:49:10;;;;;;;20.67;12.57;;;;;;;-3.46;66.82;96695.00;4969062;28;20528;-58
2022/01/11 00:51:35;;;;;;;19.77;12.85;;;;;;;-3.46;66.55;96711.47;4959514;28;20081;-58
2022/01/11 00:54:01;;;;;;;17.40;11.85;;;;;;;-3.48;66.93;96713.28;4958238;28;20071;-58
2022/01/11 00:56:26;;;;;;;18.00;11.48;;;;;;;-3.49;66.53;96714.22;4959548;28;20102;-58
2022/01/11 00:58:52;;;;;;;18.05;11.82;;;;;;;-3.49;67.09;96719.41;4958602;28;20086;-58
2022/01/11 01:01:17;;;;;;;16.55;11.40;;;;;;;-3.54;66.59;96719.59;4959408;28;20107;-58
2022/01/11 01:03:42;;;;;;;14.75;10.77;;;;;;;-3.56;67.10;96716.19;4959001;28;20083;-58
2022/01/11 01:06:08;;;;;;;15.23;10.63;;;;;;;-3.66;65.63;96720.09;4958800;28;20636;-58
2022/01/11 01:08:33;;;;;;;8.95;5.50;;;;;;;-3.82;60.90;96718.13;4958428;28;20107;-58
2022/01/11 01:10:59;;;;;;;16.85;10.18;;;;;;;-3.75;67.21;96728.25;4965466;28;20106;-58
2022/01/11 01:13:27;;;;;;;16.30;10.35;;;;;;;-3.67;67.05;96734.03;4961847;28;20154;-58
2022/01/11 01:15:53;;;;;;;15.67;10.57;;;;;;;-3.64;67.02;96720.88;4958793;28;20555;-58
2022/01/11 01:18:21;;;;;;;16.60;10.10;;;;;;;-3.61;66.17;96725.09;4950559;28;20420;-58
2022/01/11 01:20:47;;;;;;;15.07;10.00;;;;;;;-3.62;66.71;96726.88;4966650;28;20493;-58
2022/01/11 01:23:13;;;;;;;17.23;10.40;;;;;;;-3.60;67.07;96732.84;4958716;28;20071;-58
2022/01/11 01:25:39;;;;;;;15.68;10.20;;;;;;;-3.59;67.06;96725.91;4961111;28;20106;-58
2022/01/11 01:28:06;;;;;;;17.52;10.27;;;;;;;-3.54;67.26;96735.22;4962612;28;20086;-58
2022/01/11 01:30:31;;;;;;;17.63;10.85;;;;;;;-3.52;66.59;96735.16;4962223;28;20591;-58
2022/01/11 01:32:57;;;;;;;17.33;9.68;;;;;;;-3.49;66.70;96739.41;4962603;28;20317;-58
2022/01/11 01:35:25;;;;;;;19.90;11.00;;;;;;;-3.47;67.20;96735.81;4962844;28;20087;-58
2022/01/11 01:37:50;;;;;;;18.80;10.77;;;;;;;-3.50;66.34;96743.75;4954483;28;20115;-58
2022/01/11 01:40:17;;;;;;;14.15;9.25;;;;;;;-3.56;65.86;96737.03;4962446;28;20087;-58
2022/01/11 01:42:43;;;;;;;17.27;9.73;;;;;;;-3.59;66.06;96746.72;4962748;28;20087;-58
2022/01/11 01:45:09;;;;;;;15.95;9.30;;;;;;;-3.59;66.68;96742.38;4961850;28;20484;-58
2022/01/11 01:47:34;;;;;;;13.20;8.60;;;;;;;-3.58;66.34;96736.25;4962718;28;20492;-58
2022/01/11 01:50:00;;;;;;;14.88;8.93;;;;;;;-3.57;66.07;96745.75;4963055;28;20106;-58
2022/01/11 01:52:25;;;;;;;14.88;9.52;;;;;;;-3.58;66.63;96744.06;4969584;28;20161;-58
2022/01/11 01:54:51;;;;;;;13.95;9.25;;;;;;;-3.54;67.17;96744.78;4962861;28;20091;-58
2022/01/11 01:57:17;;;;;;;15.57;8.88;;;;;;;-3.54;66.66;96753.44;4962104;28;20103;-58
2022/01/11 01:59:42;;;;;;;15.35;9.65;;;;;;;-3.54;66.70;96753.44;4958315;28;20083;-58
2022/01/11 02:02:09;;;;;;;13.63;9.18;;;;;;;-3.59;66.80;96744.13;4960893;28;20106;-58
2022/01/11 02:04:35;;;;;;;13.13;8.60;;;;;;;-3.63;66.53;96755.56;4961579;28;20413;-58
2022/01/11 02:07:00;;;;;;;15.20;8.55;;;;;;;-3.72;66.43;96747.22;4967702;28;20075;-58
2022/01/11 02:09:26;;;;;;;14.52;9.27;;;;;;;-3.76;66.75;96752.59;4965627;28;20110;-58
2022/01/11 02:11:51;;;;;;;14.35;8.40;;;;;;;-3.83;66.13;96752.00;4961826;28;20485;-57
2022/01/11 02:14:16;;;;;;;10.73;7.28;;;;;;;-3.92;65.30;96753.19;4961171;28;20568;-58
2022/01/11 02:16:42;;;;;;;13.25;7.75;;;;;;;-3.92;66.91;96748.84;4967433;28;20450;-58
2022/01/11 02:19:07;;;;;;;14.02;8.30;;;;;;;-3.90;67.29;96759.22;4962044;28;20079;-58
2022/01/11 02:21:33;;;;;;;12.35;7.63;;;;;;;-3.88;67.68;96756.56;4956303;28;20403;-58
2022/01/11 02:24:00;;;;;;;11.23;7.72;;;;;;;-3.85;67.80;96759.88;4970447;28;20583;-58
2022/01/11 02:26:25;;;;;;;11.23;7.75;;;;;;;-3.85;67.29;96757.25;4961390;28;20113;-58
2022/01/11 02:28:51;;;;;;;12.30;7.78;;;;;;;-3.84;67.15;96761.56;4961889;28;20119;-58
2022/01/11 02:31:17;;;;;;;12.80;7.55;;;;;;;-3.88;67.21;96762.59;4961543;28;20530;-59
2022/01/11 02:33:48;;;;;;;12.00;7.88;;;;;;;-3.91;66.54;96765.31;4961877;28;20755;-58
2022/01/11 02:36:22;;;;;;;12.20;7.63;;;;;;;-3.95;66.49;96761.13;4960904;28;20082;-58
2022/01/11 02:38:49;;;;;;;12.98;7.22;;;;;;;-3.96;66.96;96769.84;4953175;28;20091;-58
2022/01/11 02:41:14;;;;;;;11.05;6.63;;;;;;;-3.92;67.41;96769.69;4961250;28;20311;-58
2022/01/11 02:43:43;;;;;;;11.75;6.63;;;;;;;-3.89;66.86;96771.31;4961360;28;20172;-58
2022/01/11 02:46:09;;;;;;;13.02;7.10;;;;;;;-3.88;66.36;96767.78;4961213;28;20561;-58
2022/01/11 02:48:34;;;;;;;11.45;7.05;;;;;;;-3.81;67.18;96771.84;4961271;28;20160;-58
2022/01/11 02:51:00;;;;;;;10.85;6.63;;;;;;;-3.80;66.63;96776.16;4949695;28;20263;-58
2022/01/11 02:53:25;;;;;;;9.32;5.85;;;;;;;-3.82;65.41;96762.34;4961413;28;20227;-58
2022/01/11 02:55:51;;;;;;;12.98;6.10;;;;;;;-3.84;66.06;96774.56;4961877;28;20580;-57
2022/01/11 02:58:16;;;;;;;14.10;6.78;;;;;;;-3.79;66.89;96777.00;4961092;28;20820;-58
2022/01/11 03:00:41;;;;;;;13.82;6.65;;;;;;;-3.87;67.37;96777.28;4970998;28;20530;-58
2022/01/11 03:03:20;;;;;;;12.02;7.47;;;;;;;-3.74;66.56;96776.84;4963017;28;20470;-58
2022/01/11 03:06:04;;;;;;;11.50;6.95;;;;;;;-3.70;66.53;96783.63;4963658;28;20322;-58
2022/01/11 03:08:31;;;;;;;14.13;6.68;;;;;;;-3.61;66.98;96785.84;4961130;28;20568;-58
2022/01/11 03:10:57;;;;;;;11.40;6.93;;;;;;;-3.49;67.13;96784.53;4964461;28;20122;-58
2022/01/11 03:13:22;;;;;;;11.68;6.60;;;;;;;-3.43;66.55;96786.03;4965166;28;20210;-58
2022/01/11 03:15:48;;;;;;;11.38;6.50;;;;;;;-3.40;66.16;96783.28;4963870;28;20090;-58
2022/01/11 03:18:14;;;;;;;12.02;6.80;;;;;;;-3.38;66.08;96786.69;4973023;28;20103;-58
2022/01/11 03:20:40;;;;;;;12.70;6.75;;;;;;;-3.35;65.71;96791.78;4976644;28;20110;-58
2022/01/11 03:23:06;;;;;;;10.15;6.50;;;;;;;-3.31;66.36;96792.50;4963866;28;20114;-58
2022/01/11 03:25:32;;;;;;;11.35;5.85;;;;;;;-3.31;65.77;96788.13;4964830;28;20113;-58
2022/01/11 03:27:58;;;;;;;10.20;6.10;;;;;;;-3.28;66.03;96787.16;4964827;28;20178;-58
2022/01/11 03:30:23;;;;;;;8.45;5.80;;;;;;;-3.28;65.78;96793.22;4971928;28;20114;-58
2022/01/11 03:32:49;;;;;;;10.30;5.65;;;;;;;-3.31;65.66;96797.69;4968496;28;20099;-58
2022/01/11 03:35:14;;;;;;;11.40;6.20;;;;;;;-3.34;64.52;96798.69;4965064;28;20443;-58
2022/01/11 03:37:40;;;;;;;9.95;5.85;;;;;;;-3.44;65.01;96805.16;4964391;28;20103;-58
2022/01/11 03:40:08;;;;;;;13.15;6.18;;;;;;;-3.46;65.81;96810.41;4966174;28;20087;-58
2022/01/11 03:42:34;;;;;;;12.43;6.57;;;;;;;-3.44;65.74;96815.56;4964921;28;20452;-58
2022/01/11 03:44:59;;;;;;;11.45;6.25;;;;;;;-3.47;64.48;96813.13;4967576;28;20098;-58
2022/01/11 03:47:25;;;;;;;11.18;5.90;;;;;;;-3.55;65.18;96816.00;4974505;28;20075;-58
2022/01/11 03:49:50;;;;;;;11.32;6.82;;;;;;;-3.62;65.41;96820.59;4964385;28;20099;-58
2022/01/11 03:52:15;;;;;;;9.85;6.32;;;;;;;-3.68;65.33;96815.63;4964696;28;20134;-58
2022/01/11 03:55:03;;;;;;;12.70;6.13;;;;;;;-3.68;65.96;96816.47;4964891;28;20094;-58
2022/01/11 03:57:28;;;;;;;11.55;6.30;;;;;;;-3.68;66.40;96820.81;4964525;28;20107;-58
2022/01/11 03:59:54;;;;;;;11.30;5.97;;;;;;;-3.73;66.38;96814.97;4962085;28;20123;-58
2022/01/11 04:02:20;;;;;;;9.30;5.60;;;;;;;-3.76;66.69;96810.72;4970044;28;20588;-58
2022/01/11 04:04:52;;;;;;;12.48;6.50;;;;;;;-3.78;66.37;96810.78;4970271;28;20181;-58
2022/01/11 04:07:21;;;;;;;11.52;6.05;;;;;;;-3.82;66.34;96810.94;4964194;28;20123;-58
2022/01/11 04:09:47;;;;;;;11.60;5.75;;;;;;;-3.89;66.08;96815.53;4964859;28;20761;-58
2022/01/11 04:12:14;;;;;;;11.98;5.68;;;;;;;-3.98;65.81;96805.50;4972710;28;20099;-58
2022/01/11 04:14:39;;;;;;;9.20;5.50;;;;;;;-4.06;65.72;96813.56;4964200;28;20099;-58
2022/01/11 04:17:05;;;;;;;11.73;5.43;;;;;;;-4.07;66.52;96809.28;4960791;28;20635;-58
2022/01/11 04:19:30;;;;;;;11.48;5.93;;;;;;;-4.12;66.45;96819.84;4964885;28;20091;-58
2022/01/11 04:21:55;;;;;;;10.82;5.60;;;;;;;-4.13;66.78;96815.56;4972181;28;20103;-58
2022/01/11 04:24:21;;;;;;;11.40;5.57;;;;;;;-4.11;67.15;96818.94;4963860;28;20113;-58
2022/01/11 04:26:46;;;;;;;12.30;5.75;;;;;;;-4.09;66.87;96811.09;4964114;28;20114;-58
2022/01/11 04:29:12;;;;;;;9.98;5.82;;;;;;;-4.15;66.05;96814.75;4963906;28;20095;-58
2022/01/11 04:31:37;;;;;;;10.88;5.53;;;;;;;-4.20;66.72;96814.09;4964100;28;20804;-58
2022/01/11 04:34:02;;;;;;;10.65;6.05;;;;;;;-4.25;66.50;96816.00;4964044;28;20507;-58
2022/01/11 04:36:28;;;;;;;10.57;5.68;;;;;;;-4.25;66.89;96816.84;4963129;28;20095;-58
2022/01/11 04:38:53;;;;;;;10.75;6.18;;;;;;;-4.22;67.15;96813.28;4964384;28;20079;-58
2022/01/11 04:41:19;;;;;;;10.23;5.28;;;;;;;-4.23;67.33;96806.38;4963555;28;20106;-58
2022/01/11 04:43:44;;;;;;;9.05;5.10;;;;;;;-4.25;67.21;96809.03;4963927;28;20758;-58
2022/01/11 04:46:10;;;;;;;12.45;6.22;;;;;;;-4.25;67.23;96813.41;4976061;28;20114;-58
2022/01/11 04:48:35;;;;;;;9.05;5.43;;;;;;;-4.27;66.74;96812.59;4963463;28;20654;-58
2022/01/11 04:51:01;;;;;;;10.10;5.40;;;;;;;-4.25;67.00;96821.22;4967740;28;20127;-58
2022/01/11 04:53:27;;;;;;;10.93;5.57;;;;;;;-4.25;67.04;96816.84;4963306;28;20094;-58
2022/01/11 04:55:52;;;;;;;10.32;5.47;;;;;;;-4.23;66.92;96824.59;4963719;28;20079;-58
2022/01/11 04:58:18;;;;;;;8.95;5.45;;;;;;;-4.22;66.88;96831.47;4965079;28;20107;-58
2022/01/11 05:00:43;;;;;;;11.13;5.97;;;;;;;-4.23;66.84;96827.19;4954123;28;20115;-58
2022/01/11 05:03:09;;;;;;;15.95;6.35;;;;;;;-4.23;66.82;96825.47;4963599;28;21723;-58
2022/01/11 05:05:34;;;;;;;10.63;5.95;;;;;;;-4.21;66.45;96826.22;4965926;28;20103;-58
2022/01/11 05:08:02;;;;;;;12.80;6.30;;;;;;;-4.19;66.65;96828.78;4962897;28;20311;-58
2022/01/11 05:10:27;;;;;;;10.20;5.45;;;;;;;-4.15;66.82;96826.94;4962767;28;20109;-58
2022/01/11 05:12:53;;;;;;;10.23;5.43;;;;;;;-4.14;66.47;96834.69;4962423;28;20106;-58
2022/01/11 05:15:18;;;;;;;10.52;5.32;;;;;;;-4.12;65.88;96819.84;4962995;28;20087;-58
2022/01/11 05:17:44;;;;;;;10.05;5.32;;;;;;;-4.11;65.77;96824.16;4955861;28;20119;-58
2022/01/11 05:20:09;;;;;;;10.68;5.53;;;;;;;-4.15;65.45;96817.34;4961282;28;20075;-58
2022/01/11 05:22:35;;;;;;;9.10;4.75;;;;;;;-4.09;65.75;96827.56;4961149;28;20148;-58
2022/01/11 05:25:00;;;;;;;9.40;5.32;;;;;;;-3.96;66.14;96827.94;4962654;28;20609;-58
2022/01/11 05:27:27;;;;;;;9.25;5.57;;;;;;;-3.91;66.31;96819.94;4965138;28;20166;-58
2022/01/11 05:29:54;;;;;;;10.80;5.70;;;;;;;-3.90;65.92;96826.88;4964207;28;20095;-58
2022/01/11 05:32:19;;;;;;;12.07;5.90;;;;;;;-3.86;65.66;96823.25;4951314;28;20306;-58
2022/01/11 05:34:44;;;;;;;11.95;5.20;;;;;;;-3.81;65.23;96830.84;4964372;28;20090;-58
2022/01/11 05:37:10;;;;;;;17.70;7.72;;;;;;;-4.03;59.51;96834.28;4964343;28;20587;-58
2022/01/11 05:39:36;;;;;;;10.40;5.18;;;;;;;-4.18;65.01;96827.88;4964349;28;20086;-58
2022/01/11 05:42:08;;;;;;;10.50;5.47;;;;;;;-3.93;65.90;96837.38;4964035;28;20107;-58
2022/01/11 05:44:34;;;;;;;9.85;4.78;;;;;;;-3.78;65.29;96834.22;4959013;28;20107;-58
2022/01/11 05:47:00;;;;;;;8.10;4.65;;;;;;;-3.66;65.95;96839.84;4964332;28;20086;-58
2022/01/11 05:49:25;;;;;;;8.93;4.57;;;;;;;-3.54;65.99;96841.13;4964049;28;20103;-58
2022/01/11 05:51:50;;;;;;;9.60;4.93;;;;;;;-3.48;65.04;96837.44;4966657;28;20135;-58
2022/01/11 05:54:16;;;;;;;8.05;4.53;;;;;;;-3.43;65.54;96845.94;4974893;28;20345;-58
2022/01/11 05:56:41;;;;;;;8.32;4.78;;;;;;;-3.38;65.57;96838.78;4964006;28;20778;-58
2022/01/11 05:59:07;;;;;;;8.55;4.78;;;;;;;-3.37;64.75;96837.88;4968521;28;20086;-58
2022/01/11 06:01:35;;;;;;;12.57;5.10;;;;;;;-3.40;64.58;96843.19;4970658;28;20115;-58
2022/01/11 06:04:01;;;;;;;10.60;5.28;;;;;;;-3.41;64.99;96851.91;4964034;28;20339;-58
2022/01/11 06:06:26;;;;;;;13.95;6.03;;;;;;;-3.44;64.56;96849.44;4963329;28;20169;-58
2022/01/11 06:08:51;;;;;;;8.60;4.85;;;;;;;-3.48;64.92;96853.91;4966018;28;20186;-58
2022/01/11 06:11:17;;;;;;;11.10;5.38;;;;;;;-3.53;65.02;96858.47;4964122;28;20080;-58
2022/01/11 06:13:42;;;;;;;12.45;5.60;;;;;;;-3.56;64.98;96851.59;4963674;28;20099;-58
2022/01/11 06:16:08;;;;;;;10.05;5.72;;;;;;;-3.60;65.23;96860.44;4959213;28;20079;-58
2022/01/11 06:18:34;;;;;;;11.00;6.40;;;;;;;-3.63;65.07;96855.38;4956646;28;20087;-58
2022/01/11 06:20:59;;;;;;;10.73;6.22;;;;;;;-3.73;64.60;96867.88;4968239;28;20122;-58
2022/01/11 06:23:26;;;;;;;12.15;6.20;;;;;;;-3.81;64.96;96856.88;4970940;28;20103;-58
2022/01/11 06:25:51;;;;;;;9.60;5.18;;;;;;;-3.85;65.26;96866.56;4962691;28;20178;-58
2022/01/11 06:28:17;;;;;;;12.43;6.30;;;;;;;-3.88;65.19;96873.66;4972370;28;20083;-58
2022/01/11 06:30:42;;;;;;;11.02;6.28;;;;;;;-3.94;65.16;96870.34;4973094;28;20110;-58
2022/01/11 06:33:08;;;;;;;12.35;6.88;;;;;;;-4.04;64.14;96869.03;4962711;28;20134;-58
2022/01/11 06:35:33;;;;;;;12.63;6.40;;;;;;;-4.07;64.83;96872.56;4963373;28;20091;-58
2022/01/11 06:37:59;;;;;;;12.10;6.32;;;;;;;-4.05;64.95;96869.91;4971874;28;20719;-58
2022/01/11 06:40:24;;;;;;;13.00;6.20;;;;;;;-4.10;65.00;96871.84;4946471;28;20091;-58
2022/01/11 06:42:53;;;;;;;11.60;5.93;;;;;;;-4.05;65.83;96881.16;4963026;28;20079;-58
2022/01/11 06:45:20;;;;;;;13.38;6.00;;;;;;;-4.01;64.64;96876.69;4965920;28;20110;-58
2022/01/11 06:47:46;;;;;;;11.23;5.57;;;;;;;-3.93;65.84;96882.47;4965102;28;20440;-58
2022/01/11 06:50:11;;;;;;;11.40;6.55;;;;;;;-3.92;65.14;96880.72;4968106;28;20107;-58
2022/01/11 06:52:36;;;;;;;9.95;5.63;;;;;;;-3.94;65.35;96885.97;4964123;28;20244;-58
2022/01/11 06:55:03;;;;;;;13.20;6.40;;;;;;;-3.92;64.93;96881.56;4969967;28;20079;-58
2022/01/11 06:57:29;;;;;;;12.18;6.82;;;;;;;-3.93;64.74;96879.03;4969235;28;20095;-58
2022/01/11 06:59:54;;;;;;;11.90;7.68;;;;;;;-3.85;65.97;96882.19;4953141;28;20150;-58
2022/01/11 07:02:20;;;;;;;15.57;8.90;;;;;;;-3.81;63.01;96890.72;4976792;28;20623;-58
2022/01/11 07:04:45;;;;;;;15.73;8.15;;;;;;;-3.86;61.93;96887.44;4973544;28;20477;-58
2022/01/11 07:07:11;;;;;;;17.98;11.13;;;;;;;-3.72;65.96;96892.13;4963673;28;20599;-58
2022/01/11 07:09:36;;;;;;;18.98;11.73;;;;;;;-3.59;65.98;96897.75;4962485;28;20107;-58
2022/01/11 07:12:02;;;;;;;19.02;11.65;;;;;;;-3.55;65.74;96894.97;4967977;28;20166;-58
2022/01/11 07:14:27;;;;;;;15.90;10.73;;;;;;;-3.49;64.77;96898.25;4963991;28;20114;-57
2022/01/11 07:16:53;;;;;;;14.27;9.90;;;;;;;-3.78;62.07;96901.88;4958264;28;20126;-57
2022/01/11 07:19:18;;;;;;;17.33;11.00;;;;;;;-3.66;64.80;96910.16;4960243;28;20572;-57
2022/01/11 07:21:44;;;;;;;17.80;11.30;;;;;;;-3.55;64.68;96910.59;4966378;28;20095;-57
2022/01/11 07:24:13;;;;;;;18.98;12.15;;;;;;;-3.48;64.56;96911.22;4962518;28;20084;-57
2022/01/11 07:26:39;;;;;;;21.15;13.02;;;;;;;-3.44;64.22;96910.19;4965302;28;20091;-57
2022/01/11 07:29:05;;;;;;;20.45;13.10;;;;;;;-3.42;64.28;96917.94;4965486;28;20102;-57
2022/01/11 07:31:32;;;;;;;20.50;13.73;;;;;;;-3.37;64.93;96928.19;4969310;28;20083;-57
2022/01/11 07:33:58;;;;;;;25.02;15.43;;;;;;;-3.38;64.66;96932.53;4969095;28;20119;-57
2022/01/11 07:36:23;;;;;;;26.65;16.48;;;;;;;-3.35;65.17;96936.78;4966027;28;20086;-57
2022/01/11 07:38:51;;;;;;;27.70;17.40;;;;;;;-3.40;61.54;96935.19;4964591;28;20079;-57
2022/01/11 07:41:17;;;;;;;29.92;19.77;;;;;;;-3.36;64.27;96935.91;4965394;28;20126;-57
2022/01/11 07:43:42;;;;;;;32.67;20.65;;;;;;;-3.33;64.77;96929.78;4964886;28;20544;-57
2022/01/11 07:46:07;;;;;;;33.33;21.50;;;;;;;-3.31;64.64;96928.81;4971654;28;20098;-57
2022/01/11 07:48:33;;;;;;;32.00;21.77;;;;;;;-3.32;64.05;96932.31;4967826;28;20103;-57
2022/01/11 07:50:58;;;;;;;33.25;20.88;;;;;;;-3.38;63.60;96947.31;4969772;28;20418;-57
2022/01/11 07:53:24;;;;;;;36.28;23.02;;;;;;;-3.44;64.21;96937.97;4966829;28;20277;-57
2022/01/11 07:55:49;;;;;;;40.92;24.85;;;;;;;-3.47;64.46;96941.53;4968840;28;20234;-57
2022/01/11 07:58:15;;;;;;;34.47;22.17;;;;;;;-3.56;62.77;96945.34;4974089;28;20177;-57
2022/01/11 08:00:40;;;;;;;37.13;24.48;;;;;;;-3.59;64.48;96950.69;4968323;28;20099;-57
2022/01/11 08:03:05;;;;;;;43.20;26.45;;;;;;;-3.56;64.37;96953.16;4967787;28;20075;-57
2022/01/11 08:05:31;;;;;;;43.10;25.35;;;;;;;-3.48;64.04;96952.88;4970535;28;20107;-57
2022/01/11 08:07:56;;;;;;;44.92;26.85;;;;;;;-3.43;64.11;96956.16;4968427;28;20079;-57
2022/01/11 08:10:22;;;;;;;37.72;22.02;;;;;;;-3.37;63.78;96960.28;4970242;28;20111;-57
2022/01/11 08:12:47;;;;;;;39.65;23.02;;;;;;;-3.39;61.63;96959.50;4967142;28;20632;-57
2022/01/11 08:15:12;;;;;;;33.72;17.50;;;;;;;-3.42;60.85;96967.44;4967586;28;20475;-57
2022/01/11 08:17:39;;;;;;;36.60;24.42;;;;;;;-3.41;63.90;96963.91;4970681;28;20106;-57
2022/01/11 08:20:05;;;;;;;40.97;25.85;;;;;;;-3.22;64.10;96968.44;4960291;28;20083;-57
2022/01/11 08:22:30;;;;;;;42.70;26.08;;;;;;;-3.06;64.13;96968.69;4966572;28;20103;-57
2022/01/11 08:24:56;;;;;;;42.67;28.40;;;;;;;-2.92;63.91;96971.59;4964798;28;20438;-57
2022/01/11 08:27:22;;;;;;;40.97;26.73;;;;;;;-2.84;64.21;96976.53;4963419;28;20092;-57
2022/01/11 08:29:49;;;;;;;44.20;28.85;;;;;;;-2.73;64.53;96977.84;4954809;28;20139;-57
2022/01/11 08:32:14;;;;;;;38.33;22.70;;;;;;;-2.62;62.80;96978.25;4951673;28;20278;-57
2022/01/11 08:34:40;;;;;;;46.10;30.15;;;;;;;-2.56;63.91;96985.00;4962128;28;20041;-57
2022/01/11 08:37:05;;;;;;;42.35;29.58;;;;;;;-2.48;63.82;96982.91;4972345;28;20213;-58
2022/01/11 08:39:31;;;;;;;47.88;31.42;;;;;;;-2.38;63.73;96988.59;4960692;28;20431;-57
2022/01/11 08:41:56;;;;;;;41.65;28.15;;;;;;;-2.28;64.23;96992.53;4962249;28;20035;-58
2022/01/11 08:44:24;;;;;;;49.30;32.30;;;;;;;-2.20;64.09;96994.84;4965143;28;20500;-57
2022/01/11 08:46:49;;;;;;;49.97;33.88;;;;;;;-2.09;64.83;96997.00;4964595;28;20039;-57
2022/01/11 08:49:15;;;;;;;55.92;36.53;;;;;;;-1.86;63.91;96987.34;4958794;28;20597;-57
2022/01/11 08:51:41;;;;;;;47.38;32.65;;;;;;;-1.72;64.00;96992.78;4961678;28;20047;-57
2022/01/11 08:54:07;;;;;;;57.05;34.00;;;;;;;-1.67;63.18;96994.38;4960908;28;20516;-57
2022/01/11 08:56:32;;;;;;;52.75;32.45;;;;;;;-1.65;63.57;96996.00;4955388;28;20421;-57
2022/01/11 08:58:58;;;;;;;47.95;29.48;;;;;;;-1.60;62.69;96998.41;4949575;28;20031;-57
2022/01/11 09:01:26;;;;;;;52.45;30.40;;;;;;;-1.52;63.44;96996.28;4965076;28;20400;-57
2022/01/11 09:03:52;;;;;;;43.05;27.60;;;;;;;-1.47;62.67;96994.34;4971042;28;20050;-57
2022/01/11 09:06:18;;;;;;;40.88;26.83;;;;;;;-1.40;62.68;97005.38;4967546;28;20548;-57
2022/01/11 09:08:43;;;;;;;48.38;29.05;;;;;;;-1.34;62.61;96993.78;4960341;28;20045;-57
2022/01/11 09:11:08;;;;;;;45.88;28.67;;;;;;;-1.26;61.84;96998.66;4967589;28;20049;-58
2022/01/11 09:13:36;;;;;;;40.88;25.20;;;;;;;-1.41;61.58;96992.38;4961464;28;20367;-57
2022/01/11 09:16:02;;;;;;;45.13;29.77;;;;;;;-1.21;62.72;96996.69;4966629;28;20583;-57
2022/01/11 09:18:27;;;;;;;50.22;30.38;;;;;;;-1.04;61.74;97002.91;4960991;28;20047;-57
2022/01/11 09:20:52;;;;;;;46.38;29.02;;;;;;;-0.92;61.41;97002.38;4959502;28;20203;-57
2022/01/11 09:23:18;;;;;;;41.40;28.15;;;;;;;-0.77;61.66;97003.44;4965826;28;20456;-57
2022/01/11 09:25:45;;;;;;;41.20;26.67;;;;;;;-0.67;60.97;97003.84;4960290;28;20100;-57
2022/01/11 09:28:11;;;;;;;42.78;29.55;;;;;;;-0.54;61.75;97003.25;4961234;28;20030;-57
2022/01/11 09:30:36;;;;;;;43.08;28.55;;;;;;;-0.41;61.21;96998.28;4972105;28;20085;-57
2022/01/11 09:33:02;;;;;;;45.40;28.58;;;;;;;-0.28;60.61;97001.97;4966633;28;20045;-57
2022/01/11 09:35:27;;;;;;;45.50;27.92;;;;;;;-0.21;60.69;97002.50;4975197;28;20497;-57
2022/01/11 09:37:53;;;;;;;44.28;26.73;;;;;;;-0.07;60.09;96994.81;4969633;28;20039;-57
2022/01/11 09:40:18;;;;;;;54.22;34.90;;;;;;;0.08;60.34;96997.59;4972921;28;20034;-57
2022/01/11 09:42:44;;;;;;;46.45;32.03;;;;;;;0.17;60.53;97004.16;4968998;28;20023;-57
2022/01/11 09:45:10;;;;;;;50.35;32.38;;;;;;;0.26;60.48;97003.66;4946429;28;20042;-57
2022/01/11 09:47:36;;;;;;;52.75;34.55;;;;;;;0.40;59.56;96995.09;4969529;28;20035;-57
2022/01/11 09:50:02;;;;;;;48.80;31.00;;;;;;;0.43;59.81;97004.56;4971797;28;20398;-57
2022/01/11 09:52:27;;;;;;;56.70;38.97;;;;;;;0.63;59.32;97006.13;4958823;28;20227;-58
2022/01/11 09:54:53;;;;;;;60.20;39.35;;;;;;;0.77;58.93;96999.31;4962976;28;20437;-57
2022/01/11 09:57:18;;;;;;;56.80;36.55;;;;;;;0.86;58.93;97001.44;4967884;28;20065;-57
2022/01/11 09:59:44;;;;;;;59.00;37.22;;;;;;;0.98;58.25;97000.78;4958363;28;20109;-57
2022/01/11 10:02:09;;;;;;;52.28;36.22;;;;;;;1.13;58.28;97002.66;4965560;28;20041;-57
2022/01/11 10:04:35;;;;;;;54.55;35.20;;;;;;;1.21;58.32;97003.91;4958206;28;20051;-57
2022/01/11 10:07:03;;;;;;;57.33;38.13;;;;;;;1.37;57.93;97003.06;4960933;28;20116;-57
2022/01/11 10:09:30;;;;;;;53.35;36.63;;;;;;;1.53;57.38;97000.44;4965912;28;20154;-57
2022/01/11 10:11:57;;;;;;;57.00;35.55;;;;;;;1.69;57.69;97004.81;4967428;28;20364;-57
2022/01/11 10:14:33;;;;;;;56.40;35.92;;;;;;;1.88;56.79;97008.06;4960512;28;20054;-57
2022/01/11 10:17:24;;;;;;;56.25;38.03;;;;;;;1.96;55.72;97001.53;4962125;28;20116;-57
2022/01/11 10:20:08;;;;;;;57.17;38.83;;;;;;;2.05;55.20;96997.53;4956354;28;20042;-57
2022/01/11 10:22:34;;;;;;;63.35;42.13;;;;;;;2.14;55.19;96995.22;4961086;28;20071;-56
2022/01/11 10:25:00;;;;;;;67.00;43.72;;;;;;;2.26;54.70;96990.16;4960037;28;20035;-57
2022/01/11 10:27:28;;;;;;;63.97;42.67;;;;;;;2.34;54.39;96993.16;4959493;28;20031;-57
2022/01/11 10:29:58;;;;;;;65.95;44.53;;;;;;;2.59;53.91;96989.03;4958802;28;20057;-57
2022/01/11 10:32:26;;;;;;;72.35;45.03;;;;;;;2.76;53.33;96987.19;4960450;28;20061;-57
2022/01/11 10:34:55;;;;;;;70.03;46.85;;;;;;;2.90;53.17;96989.78;4959787;28;20623;-57
2022/01/11 10:37:47;;;;;;;62.95;39.83;;;;;;;3.09;53.88;96993.06;4959679;28;20247;-57
2022/01/11 10:40:17;;;;;;;57.38;39.47;;;;;;;3.27;53.05;96993.69;4950063;28;20778;-57
2022/01/11 10:42:48;;;;;;;60.00;39.47;;;;;;;3.34;52.18;96986.22;4963112;28;20076;-57
2022/01/11 10:45:20;;;;;;;60.47;39.28;;;;;;;3.41;51.46;96985.72;4960071;28;20102;-56
2022/01/11 10:47:48;;;;;;;55.50;39.20;;;;;;;3.51;51.46;96980.72;4960395;28;20156;-56
2022/01/11 10:50:18;;;;;;;56.20;39.28;;;;;;;3.65;51.83;96979.00;4966568;28;20150;-57
2022/01/11 10:52:43;;;;;;;53.85;35.65;;;;;;;3.75;49.92;96981.88;4970411;28;20254;-57
2022/01/11 10:55:15;;;;;;;59.53;40.88;;;;;;;3.87;50.50;96981.06;4958409;28;20188;-57
2022/01/11 10:57:41;;;;;;;52.60;35.88;;;;;;;3.97;51.31;96980.44;4967460;28;20103;-57
2022/01/11 11:00:10;;;;;;;53.80;37.38;;;;;;;4.14;53.15;96984.56;4963012;28;20114;-57
2022/01/11 11:02:36;;;;;;;57.80;39.92;;;;;;;4.28;49.97;96979.22;4959228;28;20667;-57
2022/01/11 11:05:18;;;;;;;58.67;36.78;;;;;;;4.38;49.53;96982.06;4959895;28;20142;-57
2022/01/11 11:07:44;;;;;;;50.45;34.78;;;;;;;4.53;49.64;96977.53;4968969;28;20093;-56
2022/01/11 11:10:09;;;;;;;47.22;33.08;;;;;;;4.68;49.04;96986.19;4967457;28;20114;-57
2022/01/11 11:12:35;;;;;;;57.85;39.75;;;;;;;4.79;49.70;96976.66;4961403;28;20667;-57
2022/01/11 11:15:00;;;;;;;61.90;38.67;;;;;;;4.89;48.75;96982.97;4965147;28;20084;-57
2022/01/11 11:17:38;;;;;;;34.38;23.70;;;;;;;4.97;47.38;96980.63;4956513;28;20111;-58
2022/01/11 11:20:07;;;;;;;45.25;29.92;;;;;;;5.01;47.70;96983.06;4964573;28;20452;-57
2022/01/11 11:22:32;;;;;;;61.60;40.60;;;;;;;5.13;47.34;96973.47;4958295;28;20687;-57
2022/01/11 11:24:58;;;;;;;62.85;43.35;;;;;;;5.28;47.09;96972.38;4960809;28;20090;-57